YPGV

Details ICAO YPGV (GOV)
Name Gove
Region Australia
Timezone Australia/Darwin (UTC+9.5)
Plans Departing 6
Arriving 10
Stats Elevation 179 ft / 55 m (AMSL)
Location -12.269216° 136.817569°
Runways 1
Magnetic Variation 3.866° E
Sunrise 2017-12-16 20:24:46 UTC / 2017-12-17 05:54:46 Local
Sunset 2017-12-17 09:15:19 UTC / 2017-12-17 18:45:19 Local
Advertisement - Login to hide

Runways

ID Width Length Bearing (true) Bearing (mag) Surface Threshold Offset Overrun Length
13 148 ft / 45 m 7,254 ft / 2,211 m 130.10° 126.23° Asphalt 0 ft / 0 m 180 ft / 55 m
31 148 ft / 45 m 7,254 ft / 2,211 m 310.10° 306.23° Asphalt 0 ft / 0 m 554 ft / 169 m

Map

Weather


0- 5 10 15 20 25 30 35+ Temperature / ° C

Clouds and Precipitation
Forecast for 2017-12-17 06:00 UTC. Updated an hour ago

Ground ~20,000 ft ~40,000 ft Winds

METAR

YPGV 170230Z AUTO 01009KT 9999 // SCT042 SCT048 BKN062 32/21 Q1009

TAF

TAF YPGV 170102Z 1702/1714 03008KT 9999 FEW025

Frequencies

Unicom 119.60 MHz ACTIVATE LIGHTS ONLY MULT
Unicom 127.80 MHz NHULUNBUY MULT
Unicom 125.00 MHz BRISBANE CENTRE MULT
Warning: Do not use this data for real-world aviation or navigation. No guarantee of current accuracy is given.